Time;durP1;ratioP1;P1;durP2;ratioP2;P2;SDS_P1;SDS_P2;PMS_P1;PMS_P2;Temp;Humidity;BMP_temperature;BMP_pressure;BME280_temperature;BME280_humidity;BME280_pressure;Samples;Min_cycle;Max_cycle;Signal;HPM_P1;HPM_P2
2021/04/07 00:00:17;;;;;;;0.35;0.10;;;20.90;41.10;;;;;;5028099;28;20071;-78
2021/04/07 00:02:45;;;;;;;2.72;0.10;;;20.90;41.10;;;;;;5033363;28;20112;-78
2021/04/07 00:05:14;;;;;;;0.10;0.00;;;20.90;41.10;;;;;;5034915;28;20395;-78
2021/04/07 00:07:43;;;;;;;0.10;0.00;;;20.80;41.10;;;;;;5016484;28;20029;-78
2021/04/07 00:10:12;;;;;;;0.20;0.00;;;20.80;41.00;;;;;;5030519;28;20056;-78
2021/04/07 00:12:39;;;;;;;0.30;0.00;;;20.90;41.10;;;;;;5032794;28;20055;-79
2021/04/07 00:15:12;;;;;;;2.28;0.10;;;20.80;41.00;;;;;;5037806;28;20025;-79
2021/04/07 00:17:38;;;;;;;0.13;0.00;;;20.80;41.00;;;;;;5017079;28;20044;-78
2021/04/07 00:20:13;;;;;;;0.20;0.00;;;20.80;41.10;;;;;;5028751;28;20025;-78
2021/04/07 00:22:40;;;;;;;1.15;0.10;;;20.80;41.10;;;;;;5012379;28;20104;-78
2021/04/07 00:25:07;;;;;;;0.50;0.00;;;20.80;41.00;;;;;;5028727;28;20017;-78
2021/04/07 00:27:35;;;;;;;0.10;0.00;;;20.80;41.10;;;;;;5028567;28;20033;-79
2021/04/07 00:30:01;;;;;;;0.50;0.10;;;20.80;41.00;;;;;;5045293;28;20030;-79
2021/04/07 00:32:27;;;;;;;0.30;0.10;;;20.70;41.10;;;;;;5048468;28;20416;-78
2021/04/07 00:34:53;;;;;;;0.28;0.00;;;20.70;41.00;;;;;;5027118;28;20108;-79
2021/04/07 00:37:19;;;;;;;0.30;0.00;;;20.70;41.20;;;;;;5046917;28;20033;-79
2021/04/07 00:39:45;;;;;;;0.15;0.00;;;20.70;41.10;;;;;;5046303;28;20061;-79
2021/04/07 00:42:10;;;;;;;1.00;0.10;;;20.70;41.10;;;;;;5027764;28;20083;-80
2021/04/07 00:44:36;;;;;;;0.20;0.10;;;20.60;41.10;;;;;;5010491;28;20083;-79
2021/04/07 00:47:02;;;;;;;0.63;0.10;;;20.60;41.10;;;;;;5010556;28;20183;-78
2021/04/07 00:49:29;;;;;;;0.32;0.10;;;20.60;41.00;;;;;;5027953;28;20488;-78
2021/04/07 00:51:55;;;;;;;1.02;0.10;;;20.60;41.00;;;;;;5008148;28;20109;-79
2021/04/07 00:54:22;;;;;;;0.32;0.08;;;20.60;40.90;;;;;;5028594;28;20193;-78
2021/04/07 00:56:49;;;;;;;0.50;0.08;;;20.60;40.90;;;;;;5048043;28;20018;-79
2021/04/07 00:59:17;;;;;;;0.57;0.10;;;20.60;40.90;;;;;;5030303;28;20112;-79
2021/04/07 01:01:44;;;;;;;0.28;0.05;;;20.60;41.00;;;;;;5029065;28;20021;-79
2021/04/07 01:04:11;;;;;;;1.02;0.10;;;20.60;41.00;;;;;;5045337;28;20021;-78
2021/04/07 01:06:40;;;;;;;0.32;0.10;;;20.50;40.90;;;;;;5045429;28;20032;-78
2021/04/07 01:09:06;;;;;;;1.48;0.00;;;20.50;40.90;;;;;;5046578;28;20024;-78
2021/04/07 01:11:33;;;;;;;0.60;0.05;;;20.50;40.90;;;;;;5017204;28;20362;-78
2021/04/07 01:13:59;;;;;;;0.82;0.10;;;20.50;40.90;;;;;;5047244;28;20508;-78
2021/04/07 01:16:25;;;;;;;0.50;0.00;;;20.50;40.90;;;;;;5028178;28;20032;-79
2021/04/07 01:18:52;;;;;;;0.43;0.10;;;20.50;40.90;;;;;;5029095;28;20037;-79
2021/04/07 01:21:18;;;;;;;0.28;0.00;;;20.50;41.00;;;;;;5028570;28;20100;-78
2021/04/07 01:23:45;;;;;;;1.30;0.00;;;20.40;41.00;;;;;;5011358;28;20127;-78
2021/04/07 01:26:12;;;;;;;0.32;0.10;;;20.50;40.90;;;;;;5014021;28;20052;-78
2021/04/07 01:28:39;;;;;;;0.00;0.00;;;20.40;41.00;;;;;;5027564;28;20059;-78
2021/04/07 01:31:05;;;;;;;1.92;0.08;;;20.40;41.00;;;;;;5028252;28;20428;-78
2021/04/07 01:33:31;;;;;;;0.85;0.00;;;20.40;41.00;;;;;;5045135;28;20112;-78
2021/04/07 01:35:57;;;;;;;0.52;0.10;;;20.40;41.00;;;;;;5011418;28;20438;-79
2021/04/07 01:38:23;;;;;;;0.63;0.10;;;20.40;41.00;;;;;;5026604;28;20068;-78
2021/04/07 01:40:51;;;;;;;0.10;0.00;;;20.40;41.00;;;;;;5026648;28;20055;-78
2021/04/07 01:43:19;;;;;;;0.63;0.10;;;20.40;41.00;;;;;;5010559;28;20044;-78
2021/04/07 01:45:46;;;;;;;0.35;0.00;;;20.40;41.00;;;;;;5026543;28;20028;-78
2021/04/07 01:48:13;;;;;;;1.35;0.00;;;20.40;40.90;;;;;;5029048;28;20103;-78
2021/04/07 01:50:46;;;;;;;0.85;0.10;;;20.40;40.90;;;;;;5028200;28;20025;-78
2021/04/07 01:53:13;;;;;;;0.38;0.10;;;20.40;40.90;;;;;;5012690;28;20017;-78
2021/04/07 01:55:40;;;;;;;0.50;0.17;;;20.40;40.90;;;;;;5023628;28;20021;-78
2021/04/07 01:58:06;;;;;;;0.30;0.00;;;20.40;41.00;;;;;;5010458;28;20037;-79
2021/04/07 02:00:32;;;;;;;1.38;0.00;;;20.30;40.80;;;;;;5025109;28;20517;-79
2021/04/07 02:03:02;;;;;;;0.50;0.00;;;20.30;40.90;;;;;;5044457;28;20013;-78
2021/04/07 02:05:28;;;;;;;0.10;0.00;;;20.30;41.40;;;;;;5007865;28;20079;-78
2021/04/07 02:07:54;;;;;;;0.57;0.08;;;20.30;40.90;;;;;;5017737;28;20048;-79
2021/04/07 02:10:21;;;;;;;1.05;0.10;;;20.30;40.90;;;;;;5011728;28;20025;-79
2021/04/07 02:12:54;;;;;;;0.17;0.00;;;20.30;41.00;;;;;;5027610;28;20049;-79
2021/04/07 02:15:21;;;;;;;0.50;0.00;;;20.30;41.00;;;;;;5008448;28;20017;-79
2021/04/07 02:17:47;;;;;;;0.98;0.10;;;20.30;41.00;;;;;;5027260;28;20033;-79
2021/04/07 02:20:13;;;;;;;0.40;0.13;;;20.30;41.00;;;;;;5026570;28;20060;-78
2021/04/07 02:22:40;;;;;;;0.98;0.10;;;20.30;41.00;;;;;;5045290;28;20025;-78
2021/04/07 02:25:08;;;;;;;0.40;0.00;;;20.30;41.00;;;;;;5010947;28;20036;-79
2021/04/07 02:27:35;;;;;;;0.50;0.10;;;20.30;41.00;;;;;;5033633;28;20087;-78
2021/04/07 02:30:05;;;;;;;0.60;0.00;;;20.20;41.00;;;;;;5046253;28;20026;-79
2021/04/07 02:32:31;;;;;;;2.15;0.10;;;20.20;41.00;;;;;;5026847;28;20041;-79
2021/04/07 02:34:58;;;;;;;0.45;0.03;;;20.20;41.00;;;;;;5027637;28;20025;-79
2021/04/07 02:37:24;;;;;;;1.40;0.10;;;20.20;41.00;;;;;;5042106;28;20029;-79
2021/04/07 02:39:50;;;;;;;0.47;0.10;;;20.20;41.00;;;;;;5026319;28;20057;-79
2021/04/07 02:42:21;;;;;;;0.65;0.00;;;20.20;41.00;;;;;;5009742;28;20036;-79
2021/04/07 02:44:47;;;;;;;0.40;0.00;;;20.20;40.90;;;;;;5010818;28;20029;-79
2021/04/07 02:47:13;;;;;;;0.60;0.00;;;20.20;40.80;;;;;;5009108;28;20033;-78
2021/04/07 02:49:39;;;;;;;0.30;0.03;;;20.20;41.00;;;;;;5043946;28;20077;-79
2021/04/07 02:52:05;;;;;;;0.90;0.10;;;20.20;40.90;;;;;;5011713;28;20396;-78
2021/04/07 02:54:32;;;;;;;0.30;0.00;;;20.10;40.90;;;;;;5025723;28;20029;-78
2021/04/07 02:56:58;;;;;;;0.80;0.05;;;20.10;41.00;;;;;;5011408;28;20032;-78
2021/04/07 02:59:24;;;;;;;0.65;0.00;;;20.10;40.90;;;;;;5029385;28;20056;-78
2021/04/07 03:01:50;;;;;;;0.43;0.00;;;20.10;40.90;;;;;;5048575;28;20022;-78
2021/04/07 03:04:16;;;;;;;0.90;0.00;;;20.10;41.00;;;;;;5028387;28;20024;-79
2021/04/07 03:06:43;;;;;;;1.00;0.03;;;20.10;41.00;;;;;;5030832;28;20585;-79
2021/04/07 03:09:09;;;;;;;0.43;0.10;;;20.10;40.90;;;;;;5048783;28;20024;-79
2021/04/07 03:11:35;;;;;;;0.80;0.10;;;20.10;40.90;;;;;;5029876;28;20493;-78
2021/04/07 03:14:03;;;;;;;0.73;0.00;;;20.10;41.00;;;;;;5052011;28;20036;-78
2021/04/07 03:16:29;;;;;;;2.40;0.00;;;20.10;41.00;;;;;;5029900;28;20150;-78
2021/04/07 03:18:55;;;;;;;1.48;0.00;;;20.10;41.00;;;;;;5012945;28;20029;-78
2021/04/07 03:21:20;;;;;;;0.38;0.08;;;20.10;41.00;;;;;;5030642;28;20017;-80
2021/04/07 03:23:46;;;;;;;2.25;0.08;;;20.00;41.00;;;;;;5032573;28;20026;-78
2021/04/07 03:26:13;;;;;;;1.52;0.10;;;20.00;40.90;;;;;;5031975;28;20021;-78
2021/04/07 03:28:39;;;;;;;0.32;0.00;;;20.10;41.00;;;;;;5031782;28;20529;-78
2021/04/07 03:31:05;;;;;;;0.80;0.10;;;20.10;40.90;;;;;;5033363;28;20075;-79
2021/04/07 03:33:35;;;;;;;0.25;0.00;;;20.00;40.80;;;;;;5033639;28;20044;-78
2021/04/07 03:36:02;;;;;;;0.60;0.10;;;20.00;40.90;;;;;;5031838;28;20390;-78
2021/04/07 03:38:28;;;;;;;1.05;0.10;;;20.00;40.80;;;;;;5034593;28;20034;-78
2021/04/07 03:40:54;;;;;;;3.10;0.20;;;20.10;40.80;;;;;;5032965;28;20021;-78
2021/04/07 03:43:22;;;;;;;0.82;0.10;;;20.00;40.80;;;;;;5048760;28;20029;-78
2021/04/07 03:45:54;;;;;;;0.95;0.00;;;20.00;40.90;;;;;;5032610;28;20032;-80
2021/04/07 03:48:26;;;;;;;0.57;0.10;;;20.00;40.80;;;;;;5030615;28;20116;-78
2021/04/07 03:50:52;;;;;;;1.17;0.20;;;20.00;40.90;;;;;;5032846;28;20037;-79
2021/04/07 03:53:20;;;;;;;1.65;0.10;;;20.00;40.80;;;;;;5015675;28;20040;-79
2021/04/07 03:55:48;;;;;;;0.52;0.10;;;20.00;40.80;;;;;;5033835;28;20042;-79
2021/04/07 03:58:14;;;;;;;0.38;0.00;;;20.00;40.80;;;;;;5058243;28;20505;-78
2021/04/07 04:00:41;;;;;;;0.40;0.10;;;20.00;40.80;;;;;;5043983;28;20021;-78
2021/04/07 04:03:07;;;;;;;0.85;0.10;;;19.90;40.80;;;;;;5026239;28;20596;-78
2021/04/07 04:05:37;;;;;;;0.30;0.10;;;19.90;40.80;;;;;;5021446;28;20033;-78
2021/04/07 04:08:04;;;;;;;1.70;0.13;;;19.90;40.80;;;;;;5014880;28;20075;-78
2021/04/07 04:10:31;;;;;;;0.85;0.00;;;19.90;40.80;;;;;;5028420;28;20403;-79
2021/04/07 04:12:57;;;;;;;2.15;0.10;;;19.90;40.80;;;;;;5029463;28;20017;-78
2021/04/07 04:15:23;;;;;;;0.85;0.10;;;19.90;40.80;;;;;;5030869;28;20028;-79
2021/04/07 04:17:50;;;;;;;0.40;0.05;;;19.90;40.90;;;;;;5049723;28;20055;-79
2021/04/07 04:20:17;;;;;;;0.90;0.10;;;19.90;40.90;;;;;;5016409;28;20036;-79
2021/04/07 04:22:44;;;;;;;0.40;0.10;;;19.90;40.90;;;;;;5032588;28;20040;-79
2021/04/07 04:25:14;;;;;;;0.50;0.10;;;19.90;40.90;;;;;;5032917;28;20029;-79
2021/04/07 04:27:40;;;;;;;0.43;0.10;;;19.90;41.00;;;;;;5028826;28;20290;-79
2021/04/07 04:30:09;;;;;;;0.30;0.10;;;19.90;40.90;;;;;;5028146;28;20520;-79
2021/04/07 04:32:35;;;;;;;0.65;0.10;;;19.90;41.00;;;;;;5029228;28;20453;-79
2021/04/07 04:35:01;;;;;;;0.43;0.10;;;19.80;41.00;;;;;;5012067;28;20029;-79
2021/04/07 04:37:27;;;;;;;0.73;0.00;;;19.80;41.00;;;;;;5016918;28;20033;-79
2021/04/07 04:39:53;;;;;;;0.28;0.08;;;19.80;41.00;;;;;;5018048;28;20059;-79
2021/04/07 04:42:20;;;;;;;0.20;0.00;;;19.80;41.00;;;;;;5034535;28;20437;-78
2021/04/07 04:44:46;;;;;;;1.00;0.10;;;19.80;41.00;;;;;;5052055;28;20551;-81
2021/04/07 04:47:12;;;;;;;0.20;0.00;;;19.80;41.00;;;;;;5045858;28;20056;-79
2021/04/07 04:49:37;;;;;;;2.45;0.00;;;19.80;41.00;;;;;;5047744;28;20127;-79
2021/04/07 04:52:04;;;;;;;0.50;0.05;;;19.80;41.00;;;;;;5034772;28;20017;-79
2021/04/07 04:54:30;;;;;;;0.05;0.00;;;19.80;41.00;;;;;;5048807;28;20025;-79
2021/04/07 04:56:56;;;;;;;0.35;0.00;;;19.80;41.10;;;;;;5028755;28;20021;-79
2021/04/07 04:59:22;;;;;;;0.28;0.00;;;19.80;41.10;;;;;;5010793;28;20022;-78
2021/04/07 05:01:48;;;;;;;0.82;0.03;;;19.80;41.00;;;;;;5027484;28;20032;-78
2021/04/07 05:04:14;;;;;;;0.88;0.22;;;19.80;41.10;;;;;;5027704;28;20601;-79
2021/04/07 05:06:39;;;;;;;0.30;0.00;;;19.80;41.10;;;;;;5025773;28;20025;-79
2021/04/07 05:09:06;;;;;;;0.43;0.00;;;19.70;41.10;;;;;;5014642;28;20090;-79
2021/04/07 05:11:33;;;;;;;0.32;0.00;;;19.80;41.10;;;;;;5025779;28;20033;-78
2021/04/07 05:14:03;;;;;;;1.00;0.00;;;19.70;41.10;;;;;;5026000;28;20033;-78
2021/04/07 05:16:31;;;;;;;0.70;0.00;;;19.70;41.10;;;;;;5026283;28;20021;-81
2021/04/07 05:18:58;;;;;;;0.38;0.00;;;19.70;41.20;;;;;;5027679;28;20029;-81
2021/04/07 05:21:24;;;;;;;0.75;0.10;;;19.80;41.20;;;;;;5026476;28;20029;-78
2021/04/07 05:23:50;;;;;;;0.45;0.10;;;19.80;41.20;;;;;;5045274;28;20473;-78
2021/04/07 05:26:16;;;;;;;0.45;0.10;;;19.90;41.10;;;;;;5028245;28;20401;-78
2021/04/07 05:28:42;;;;;;;0.30;0.10;;;20.00;40.80;;;;;;5011996;28;20069;-78
2021/04/07 05:31:09;;;;;;;0.30;0.10;;;20.20;40.60;;;;;;5029132;28;20026;-79
2021/04/07 05:33:37;;;;;;;0.38;0.10;;;20.30;40.40;;;;;;5026510;28;20037;-79
2021/04/07 05:36:06;;;;;;;0.13;0.00;;;20.50;40.30;;;;;;5025361;28;20025;-79
2021/04/07 05:38:32;;;;;;;0.40;0.10;;;20.50;40.10;;;;;;5011979;28;20112;-79
2021/04/07 05:40:59;;;;;;;0.20;0.10;;;20.60;40.10;;;;;;5008231;28;20464;-79
2021/04/07 05:43:26;;;;;;;0.32;0.05;;;20.60;40.00;;;;;;5012175;28;20453;-78
2021/04/07 05:45:53;;;;;;;0.20;0.00;;;20.70;40.10;;;;;;5026872;28;20029;-79
2021/04/07 05:48:19;;;;;;;0.68;0.10;;;20.70;40.00;;;;;;5045883;28;20118;-79
2021/04/07 05:50:50;;;;;;;0.20;0.00;;;20.80;40.50;;;;;;5026664;28;20030;-78
2021/04/07 05:53:16;;;;;;;0.43;0.10;;;20.80;39.90;;;;;;5045767;28;20051;-79
2021/04/07 05:55:51;;;;;;;0.50;0.10;;;20.80;40.00;;;;;;5024055;28;20117;-79
2021/04/07 05:58:17;;;;;;;0.55;0.10;;;20.90;39.90;;;;;;5024927;28;20119;-78
2021/04/07 06:00:44;;;;;;;0.40;0.10;;;20.80;39.80;;;;;;5026418;28;20033;-78
2021/04/07 06:03:11;;;;;;;0.40;0.10;;;20.90;40.30;;;;;;5008116;28;20064;-79
2021/04/07 06:05:39;;;;;;;0.52;0.10;;;21.00;39.70;;;;;;5009495;28;20032;-79
2021/04/07 06:08:07;;;;;;;0.43;0.05;;;21.00;39.70;;;;;;5026444;28;20029;-78
2021/04/07 06:10:35;;;;;;;0.20;0.00;;;21.10;39.70;;;;;;5024263;28;20544;-78
2021/04/07 06:13:01;;;;;;;0.20;0.00;;;21.10;39.70;;;;;;5043644;28;20477;-78
2021/04/07 06:15:28;;;;;;;0.38;0.10;;;21.10;39.80;;;;;;5007599;28;20025;-78
2021/04/07 06:17:56;;;;;;;0.40;0.10;;;21.10;39.80;;;;;;5011592;28;20034;-79
2021/04/07 06:20:25;;;;;;;0.38;0.10;;;21.10;39.90;;;;;;5025349;28;20029;-79
2021/04/07 06:22:52;;;;;;;0.30;0.10;;;21.00;39.90;;;;;;5024096;28;20057;-79
2021/04/07 06:25:18;;;;;;;0.70;0.10;;;21.00;40.10;;;;;;5027530;28;20033;-79
2021/04/07 06:27:52;;;;;;;0.52;0.10;;;21.00;40.10;;;;;;5026486;28;20033;-78
2021/04/07 06:30:19;;;;;;;0.40;0.10;;;21.00;40.20;;;;;;5044790;28;20029;-78
2021/04/07 06:32:45;;;;;;;0.40;0.10;;;20.90;40.20;;;;;;5013400;28;20036;-79
2021/04/07 06:35:12;;;;;;;0.40;0.10;;;20.90;40.20;;;;;;5031679;28;20052;-78
2021/04/07 06:37:38;;;;;;;1.08;0.10;;;20.90;40.30;;;;;;5031331;28;20115;-79
2021/04/07 06:40:06;;;;;;;0.80;0.10;;;20.80;40.40;;;;;;5032263;28;20801;-79
2021/04/07 06:42:33;;;;;;;0.50;0.20;;;20.80;40.40;;;;;;5033259;28;20034;-78
2021/04/07 06:45:00;;;;;;;0.30;0.10;;;20.70;40.40;;;;;;5034027;28;20248;-78
2021/04/07 06:47:26;;;;;;;0.75;0.30;;;20.70;40.50;;;;;;5051465;28;20488;-79
2021/04/07 06:49:53;;;;;;;0.90;0.10;;;20.70;40.60;;;;;;5049639;28;20437;-78
2021/04/07 06:52:21;;;;;;;0.55;0.17;;;20.70;40.70;;;;;;5032418;28;20041;-78
2021/04/07 06:54:53;;;;;;;0.40;0.10;;;20.60;40.70;;;;;;5050813;28;20013;-77
2021/04/07 06:57:20;;;;;;;0.60;0.20;;;20.60;40.90;;;;;;5047350;28;20024;-78
2021/04/07 06:59:48;;;;;;;0.80;0.30;;;20.50;40.90;;;;;;5029701;28;20035;-78
2021/04/07 07:02:15;;;;;;;0.52;0.30;;;20.50;40.90;;;;;;5030097;28;20017;-78
2021/04/07 07:04:41;;;;;;;0.47;0.20;;;20.50;41.00;;;;;;5047175;28;20087;-78
2021/04/07 07:07:07;;;;;;;0.68;0.30;;;20.50;41.10;;;;;;5047855;28;20041;-78
2021/04/07 07:09:34;;;;;;;1.15;0.30;;;20.50;41.10;;;;;;5031381;28;20086;-77
2021/04/07 07:12:01;;;;;;;1.17;0.32;;;20.50;41.20;;;;;;5013918;28;20112;-78
2021/04/07 07:14:27;;;;;;;2.17;0.50;;;20.60;41.40;;;;;;5032530;28;20018;-77
2021/04/07 07:16:54;;;;;;;0.70;0.50;;;20.70;41.40;;;;;;5049846;28;20029;-77
2021/04/07 07:19:26;;;;;;;1.45;0.40;;;20.70;41.20;;;;;;5032630;28;20263;-78
2021/04/07 07:22:01;;;;;;;3.53;0.47;;;20.80;41.40;;;;;;5048418;28;20037;-77
2021/04/07 07:24:36;;;;;;;1.80;0.50;;;20.90;41.50;;;;;;5011222;28;20021;-77
2021/04/07 07:27:05;;;;;;;2.33;0.45;;;20.90;41.30;;;;;;5030927;28;20036;-77
2021/04/07 07:29:34;;;;;;;2.05;0.80;;;20.80;41.50;;;;;;5011734;28;20572;-77
2021/04/07 07:32:10;;;;;;;1.80;0.50;;;20.70;41.50;;;;;;5030965;28;20087;-77
2021/04/07 07:34:37;;;;;;;4.03;0.40;;;20.70;41.80;;;;;;5031396;28;20025;-77
2021/04/07 07:37:05;;;;;;;1.35;0.70;;;20.70;41.60;;;;;;5029220;28;20029;-77
2021/04/07 07:39:34;;;;;;;2.42;0.50;;;20.60;41.80;;;;;;5032575;28;20037;-77
2021/04/07 07:42:03;;;;;;;1.75;0.60;;;20.60;41.70;;;;;;5047968;28;20543;-76
2021/04/07 07:44:31;;;;;;;2.83;0.70;;;20.60;41.80;;;;;;5043930;28;20109;-76
2021/04/07 07:47:03;;;;;;;1.23;0.47;;;20.50;41.90;;;;;;5025984;28;20490;-76
2021/04/07 07:49:30;;;;;;;1.13;0.65;;;20.60;41.70;;;;;;5026156;28;20026;-77
2021/04/07 07:51:56;;;;;;;0.95;0.52;;;20.60;41.70;;;;;;5015809;28;20045;-78
2021/04/07 07:54:24;;;;;;;2.95;0.30;;;20.70;41.80;;;;;;5029018;28;20546;-78
2021/04/07 07:56:52;;;;;;;2.03;0.70;;;20.70;41.40;;;;;;5042979;28;20017;-77
2021/04/07 07:59:24;;;;;;;1.60;0.50;;;20.80;41.60;;;;;;5044011;28;20144;-81
2021/04/07 08:01:50;;;;;;;1.00;0.40;;;21.00;41.60;;;;;;5034781;28;20025;-79
2021/04/07 08:04:18;;;;;;;3.17;0.43;;;21.20;41.20;;;;;;5045464;28;20078;-80
2021/04/07 08:06:44;;;;;;;1.48;0.47;;;21.30;41.10;;;;;;5024825;28;20021;-77
2021/04/07 08:09:11;;;;;;;1.15;0.50;;;21.40;40.80;;;;;;5026577;28;20032;-76
2021/04/07 08:11:37;;;;;;;0.88;0.50;;;21.30;40.70;;;;;;5044608;28;20030;-76
2021/04/07 08:14:04;;;;;;;1.77;0.73;;;21.30;40.80;;;;;;5024939;28;20032;-78
2021/04/07 08:16:31;;;;;;;0.95;0.40;;;21.40;41.00;;;;;;5043679;28;20025;-78
2021/04/07 08:18:59;;;;;;;0.93;0.35;;;21.50;41.10;;;;;;5047967;28;20025;-78
2021/04/07 08:21:25;;;;;;;0.75;0.30;;;21.60;41.00;;;;;;5027469;28;20029;-77
2021/04/07 08:24:00;;;;;;;0.90;0.35;;;21.60;41.10;;;;;;5026467;28;20446;-76
2021/04/07 08:26:29;;;;;;;1.92;0.52;;;21.70;41.10;;;;;;5042665;28;20148;-77
2021/04/07 08:28:56;;;;;;;1.95;0.40;;;21.60;40.90;;;;;;5026693;28;20096;-76
2021/04/07 08:31:25;;;;;;;1.13;0.50;;;21.60;41.00;;;;;;5045182;28;20028;-76
2021/04/07 08:33:53;;;;;;;4.03;0.47;;;21.70;41.00;;;;;;5044453;28;20036;-76
2021/04/07 08:36:23;;;;;;;0.70;0.30;;;21.80;41.30;;;;;;5015287;28;20021;-75
2021/04/07 08:38:59;;;;;;;1.67;0.40;;;21.80;40.90;;;;;;5025157;28;20041;-75
2021/04/07 08:41:26;;;;;;;1.30;0.20;;;21.80;41.00;;;;;;5008860;28;20049;-75
2021/04/07 08:43:53;;;;;;;0.70;0.30;;;21.80;40.90;;;;;;5021189;28;20075;-75
2021/04/07 08:46:23;;;;;;;1.35;0.52;;;21.80;40.80;;;;;;5025290;28;20033;-77
2021/04/07 08:48:50;;;;;;;1.02;0.40;;;21.90;41.10;;;;;;5042648;28;20374;-78
2021/04/07 08:51:19;;;;;;;0.77;0.30;;;21.90;41.00;;;;;;5046133;28;20025;-77
2021/04/07 08:53:51;;;;;;;0.85;0.30;;;21.90;41.10;;;;;;5046886;28;20017;-78
2021/04/07 08:56:27;;;;;;;0.50;0.20;;;21.90;41.10;;;;;;5012741;28;20021;-75
2021/04/07 08:59:04;;;;;;;0.82;0.30;;;21.80;41.00;;;;;;5021703;28;20060;-75
2021/04/07 09:01:30;;;;;;;1.02;0.38;;;21.80;41.10;;;;;;5007589;28;20036;-77
2021/04/07 09:04:14;;;;;;;1.90;0.30;;;21.90;41.30;;;;;;5024401;28;20029;-78
2021/04/07 09:06:57;;;;;;;0.52;0.20;;;21.80;41.20;;;;;;5024359;28;20055;-76
2021/04/07 09:09:23;;;;;;;1.10;0.30;;;21.80;41.20;;;;;;5024691;28;20064;-77
2021/04/07 09:11:51;;;;;;;0.50;0.20;;;21.80;41.30;;;;;;5027332;28;20104;-76
2021/04/07 09:14:18;;;;;;;0.60;0.22;;;21.80;41.70;;;;;;5042326;28;20017;-79
2021/04/07 09:16:45;;;;;;;0.98;0.22;;;21.70;41.30;;;;;;5023224;28;20034;-78
2021/04/07 09:19:17;;;;;;;1.40;0.43;;;21.70;41.50;;;;;;5046583;28;20024;-78
2021/04/07 09:21:53;;;;;;;2.17;0.38;;;21.80;41.50;;;;;;5027697;28;20026;-79
2021/04/07 09:24:20;;;;;;;3.72;0.38;;;21.70;41.50;;;;;;5026683;28;20111;-77
2021/04/07 09:26:47;;;;;;;4.35;0.40;;;21.60;41.20;;;;;;5009091;28;20029;-76
2021/04/07 09:29:15;;;;;;;2.42;0.40;;;21.70;41.50;;;;;;5024972;28;20090;-77
2021/04/07 09:31:41;;;;;;;0.63;0.28;;;21.70;41.30;;;;;;5045555;28;20025;-77
2021/04/07 09:34:12;;;;;;;0.60;0.20;;;21.70;41.30;;;;;;5042122;28;20060;-77
2021/04/07 09:36:39;;;;;;;1.23;0.20;;;21.70;41.40;;;;;;5041894;28;20100;-76
2021/04/07 09:39:10;;;;;;;1.27;0.30;;;21.70;41.50;;;;;;5042114;28;20444;-78
2021/04/07 09:41:40;;;;;;;1.33;0.30;;;21.70;41.40;;;;;;5041121;28;20078;-77
2021/04/07 09:44:07;;;;;;;0.95;0.30;;;21.60;41.40;;;;;;5043602;28;20026;-75
2021/04/07 09:46:34;;;;;;;1.20;0.50;;;21.60;41.50;;;;;;5048358;28;20581;-75
2021/04/07 09:49:07;;;;;;;1.38;0.40;;;21.60;42.10;;;;;;5048436;28;20428;-76
2021/04/07 09:51:48;;;;;;;0.70;0.30;;;21.60;41.90;;;;;;5013070;28;20036;-75
2021/04/07 09:54:25;;;;;;;1.95;0.20;;;21.50;41.80;;;;;;5013716;28;20032;-79
2021/04/07 09:57:00;;;;;;;1.42;0.30;;;21.50;41.80;;;;;;5024532;28;20447;-79
2021/04/07 09:59:35;;;;;;;1.80;0.20;;;21.50;41.90;;;;;;5027075;28;20026;-79
2021/04/07 10:02:03;;;;;;;1.88;0.30;;;21.40;42.00;;;;;;5046159;28;20172;-79
2021/04/07 10:04:30;;;;;;;0.47;0.20;;;21.40;41.80;;;;;;5008431;28;20486;-79
2021/04/07 10:07:07;;;;;;;2.17;0.45;;;21.40;42.10;;;;;;5024785;28;20223;-78
2021/04/07 10:09:33;;;;;;;3.53;0.65;;;21.40;42.00;;;;;;5026693;28;20029;-79
2021/04/07 10:11:59;;;;;;;0.30;0.10;;;21.30;42.10;;;;;;5025588;28;20044;-79
2021/04/07 10:14:25;;;;;;;1.00;0.25;;;21.30;42.00;;;;;;5026598;28;20024;-79
2021/04/07 10:16:51;;;;;;;0.50;0.20;;;21.40;42.10;;;;;;5027614;28;20021;-79
2021/04/07 10:19:35;;;;;;;0.50;0.20;;;21.50;42.20;;;;;;5045053;28;20080;-79
2021/04/07 10:22:27;;;;;;;0.77;0.30;;;21.70;42.20;;;;;;5030186;28;20116;-80
2021/04/07 10:25:04;;;;;;;0.70;0.20;;;21.90;42.00;;;;;;5026063;28;20025;-80
2021/04/07 10:27:30;;;;;;;0.43;0.20;;;22.00;41.80;;;;;;5027446;28;20048;-79
2021/04/07 10:30:11;;;;;;;0.98;0.20;;;22.10;41.60;;;;;;5027264;28;20021;-77
2021/04/07 10:32:45;;;;;;;0.70;0.30;;;22.20;41.60;;;;;;5024910;28;20035;-80
2021/04/07 10:35:21;;;;;;;2.33;0.30;;;22.20;41.60;;;;;;5023089;28;20055;-79
2021/04/07 10:37:59;;;;;;;1.05;0.20;;;22.30;41.50;;;;;;5009980;28;20029;-79
2021/04/07 10:40:27;;;;;;;3.85;0.30;;;22.30;41.50;;;;;;5026521;28;20114;-79
2021/04/07 10:42:53;;;;;;;0.68;0.30;;;22.30;41.40;;;;;;5008985;28;20134;-79
2021/04/07 10:45:21;;;;;;;1.75;0.20;;;22.40;41.50;;;;;;5022254;28;20029;-77
2021/04/07 10:47:49;;;;;;;0.45;0.20;;;22.40;41.50;;;;;;5044577;28;20096;-78
2021/04/07 10:50:16;;;;;;;0.50;0.30;;;22.40;42.10;;;;;;5024928;28;20470;-77
2021/04/07 10:52:43;;;;;;;1.17;0.10;;;22.40;41.50;;;;;;5026323;28;20018;-76
2021/04/07 10:55:19;;;;;;;0.80;0.40;;;22.40;41.50;;;;;;5022775;28;20555;-77
2021/04/07 10:57:48;;;;;;;1.02;0.20;;;22.40;41.50;;;;;;5043504;28;20496;-79
2021/04/07 11:00:34;;;;;;;1.35;0.30;;;22.50;41.50;;;;;;5009330;28;20041;-76
2021/04/07 11:03:01;;;;;;;0.65;0.20;;;22.60;41.60;;;;;;5042732;28;20112;-78
2021/04/07 11:05:43;;;;;;;0.68;0.20;;;22.60;41.40;;;;;;5039421;28;20025;-78
2021/04/07 11:08:10;;;;;;;0.60;0.20;;;22.60;41.50;;;;;;5041412;28;20032;-77
2021/04/07 11:10:42;;;;;;;0.70;0.20;;;22.60;41.50;;;;;;5041757;28;20021;-79
2021/04/07 11:13:10;;;;;;;0.60;0.22;;;22.60;41.50;;;;;;5024828;28;20032;-78
2021/04/07 11:15:37;;;;;;;2.13;0.50;;;22.60;41.60;;;;;;5025300;28;20043;-79
2021/04/07 11:18:03;;;;;;;0.63;0.15;;;22.50;41.60;;;;;;5022944;28;20032;-78
2021/04/07 11:20:29;;;;;;;1.05;0.20;;;22.50;41.50;;;;;;5030022;28;20025;-77
2021/04/07 11:22:56;;;;;;;0.63;0.30;;;22.50;41.60;;;;;;5029555;28;20025;-78
2021/04/07 11:25:22;;;;;;;1.90;0.20;;;22.50;41.70;;;;;;5014735;28;20029;-78
2021/04/07 11:27:51;;;;;;;0.80;0.20;;;22.40;41.70;;;;;;5028781;28;20424;-77
2021/04/07 11:30:19;;;;;;;1.17;0.20;;;22.40;41.70;;;;;;5030755;28;20025;-78
2021/04/07 11:32:57;;;;;;;0.93;0.20;;;22.40;41.70;;;;;;5028113;28;20113;-78
2021/04/07 11:37:56;;;;;;;0.50;0.22;;;22.40;42.20;;;;;;5046283;28;20060;-77
2021/04/07 11:43:17;;;;;;;0.75;0.20;;;22.30;41.90;;;;;;5043159;28;20457;-78
2021/04/07 11:45:44;;;;;;;1.30;0.30;;;22.30;41.80;;;;;;5044809;28;20115;-76
2021/04/07 11:48:11;;;;;;;1.55;0.45;;;22.30;41.80;;;;;;5024579;28;20273;-76
2021/04/07 11:50:37;;;;;;;0.47;0.20;;;22.30;41.80;;;;;;5044159;28;20108;-77
2021/04/07 11:53:04;;;;;;;2.05;0.40;;;22.30;42.10;;;;;;5030551;28;20129;-79
2021/04/07 11:55:30;;;;;;;2.15;0.20;;;22.30;42.10;;;;;;5026071;28;20025;-76
2021/04/07 11:57:56;;;;;;;1.38;0.20;;;22.20;42.20;;;;;;5026901;28;20029;-76
2021/04/07 12:00:23;;;;;;;1.38;0.30;;;22.20;42.10;;;;;;5043725;28;20021;-76
2021/04/07 12:02:49;;;;;;;2.03;0.25;;;22.10;42.20;;;;;;5026220;28;20029;-76
2021/04/07 12:05:17;;;;;;;3.42;0.30;;;22.10;42.20;;;;;;5043743;28;20071;-76
2021/04/07 12:07:43;;;;;;;0.80;0.20;;;22.10;42.40;;;;;;5009830;28;20039;-77
2021/04/07 12:10:19;;;;;;;0.90;0.20;;;22.10;42.40;;;;;;5046647;28;20103;-76
2021/04/07 12:12:47;;;;;;;0.73;0.28;;;22.10;42.30;;;;;;5043361;28;20022;-76
2021/04/07 12:15:14;;;;;;;1.85;0.20;;;22.10;42.80;;;;;;5027021;28;20068;-77
2021/04/07 12:17:40;;;;;;;0.93;0.20;;;22.10;42.50;;;;;;5046272;28;20029;-76
2021/04/07 12:20:06;;;;;;;1.05;0.30;;;22.10;42.50;;;;;;5024981;28;20020;-80
2021/04/07 12:22:33;;;;;;;1.20;0.30;;;22.00;42.30;;;;;;5028976;28;20033;-77
2021/04/07 12:24:58;;;;;;;0.73;0.30;;;22.10;42.20;;;;;;5025779;28;20032;-79
2021/04/07 12:27:24;;;;;;;2.40;0.10;;;22.00;42.40;;;;;;5045815;28;20052;-78
2021/04/07 12:29:51;;;;;;;0.98;0.20;;;22.00;42.40;;;;;;5027500;28;20025;-78
2021/04/07 12:32:16;;;;;;;1.10;0.15;;;22.00;42.30;;;;;;5045387;28;20032;-79
2021/04/07 12:34:44;;;;;;;1.27;0.20;;;22.00;42.50;;;;;;5045155;28;20025;-79
2021/04/07 12:37:10;;;;;;;1.60;0.50;;;22.00;42.30;;;;;;5029061;28;20449;-79
2021/04/07 12:39:39;;;;;;;1.83;0.32;;;22.10;42.30;;;;;;5030092;28;20511;-79
2021/04/07 12:42:13;;;;;;;0.95;0.30;;;22.10;42.10;;;;;;5046508;28;20021;-78
2021/04/07 12:44:39;;;;;;;2.45;0.38;;;22.10;42.10;;;;;;5030152;28;20553;-77
2021/04/07 12:47:04;;;;;;;2.50;0.40;;;22.00;42.10;;;;;;5026776;28;20060;-79
2021/04/07 12:49:30;;;;;;;0.60;0.13;;;22.00;42.50;;;;;;5026653;28;20029;-79
2021/04/07 12:51:56;;;;;;;0.85;0.20;;;22.00;42.50;;;;;;5020776;28;20047;-79
2021/04/07 12:54:22;;;;;;;0.60;0.10;;;22.00;42.50;;;;;;5026037;28;20029;-79
2021/04/07 12:56:48;;;;;;;1.02;0.10;;;22.10;42.40;;;;;;5010959;28;20440;-79